Time;durP1;ratioP1;P1;durP2;ratioP2;P2;SDS_P1;SDS_P2;PMS_P1;PMS_P2;Temp;Humidity;BMP_temperature;BMP_pressure;BME280_temperature;BME280_humidity;BME280_pressure;Samples;Min_cycle;Max_cycle;Signal;HPM_P1;HPM_P2
2021/08/16 00:00:01;;;;;;;17.05;4.22;;;;;;;17.16;76.35;101071.16;5052185;28;20115;-75
2021/08/16 00:02:26;;;;;;;25.67;4.15;;;;;;;17.15;76.01;101070.31;5051287;28;20037;-75
2021/08/16 00:04:52;;;;;;;25.90;4.68;;;;;;;17.14;76.12;101083.91;5052242;28;20392;-75
2021/08/16 00:07:17;;;;;;;28.63;4.10;;;;;;;17.10;76.42;101070.84;5051404;28;20090;-76
2021/08/16 00:09:43;;;;;;;28.33;4.47;;;;;;;17.10;76.31;101078.91;5052072;28;20102;-75
2021/08/16 00:12:09;;;;;;;24.20;3.97;;;;;;;17.12;76.30;101072.53;5051885;28;20044;-75
2021/08/16 00:14:34;;;;;;;21.48;4.10;;;;;;;17.11;76.72;101071.69;5050467;28;20618;-75
2021/08/16 00:17:00;;;;;;;20.95;3.80;;;;;;;17.10;76.81;101070.00;5051789;28;20025;-75
2021/08/16 00:19:25;;;;;;;21.33;4.20;;;;;;;17.10;76.39;101068.16;5051088;28;20036;-75
2021/08/16 00:21:51;;;;;;;28.80;4.50;;;;;;;17.08;76.71;101067.50;5051579;28;20017;-74
2021/08/16 00:24:17;;;;;;;28.15;4.65;;;;;;;17.09;76.55;101061.13;5051194;28;20123;-75
2021/08/16 00:26:42;;;;;;;18.00;3.75;;;;;;;17.12;76.58;101061.78;5051784;28;20385;-75
2021/08/16 00:29:08;;;;;;;23.77;3.70;;;;;;;17.13;76.62;101058.91;5055411;28;20124;-74
2021/08/16 00:31:33;;;;;;;26.10;4.15;;;;;;;17.13;76.63;101055.38;5054618;28;20294;-76
2021/08/16 00:33:58;;;;;;;32.63;4.13;;;;;;;17.14;76.22;101057.03;5070912;28;20036;-75
2021/08/16 00:36:24;;;;;;;21.52;3.58;;;;;;;17.12;76.81;101051.84;5054729;28;20067;-76
2021/08/16 00:38:49;;;;;;;22.40;3.95;;;;;;;17.07;76.35;101048.84;5055351;28;20033;-75
2021/08/16 00:41:17;;;;;;;28.25;4.65;;;;;;;17.05;76.65;101048.22;5054838;28;20032;-76
2021/08/16 00:43:43;;;;;;;25.38;4.57;;;;;;;17.03;76.82;101052.91;5055397;28;20465;-76
2021/08/16 00:46:08;;;;;;;24.20;4.40;;;;;;;17.02;76.76;101049.38;5055203;28;20055;-77
2021/08/16 00:48:33;;;;;;;20.40;3.67;;;;;;;17.01;77.00;101063.84;5054652;28;20451;-75
2021/08/16 00:51:00;;;;;;;24.05;4.15;;;;;;;17.01;77.09;101068.38;5054867;28;20084;-75
2021/08/16 00:53:27;;;;;;;24.30;3.92;;;;;;;16.99;77.13;101052.44;5054501;28;20037;-76
2021/08/16 00:55:53;;;;;;;22.52;4.05;;;;;;;17.01;76.71;101053.09;5069946;28;20444;-76
2021/08/16 00:58:19;;;;;;;14.48;3.38;;;;;;;17.02;77.21;101048.56;5054114;28;20033;-74
2021/08/16 01:00:44;;;;;;;23.25;3.67;;;;;;;17.02;76.90;101052.09;5055262;28;20079;-76
2021/08/16 01:03:10;;;;;;;15.85;3.38;;;;;;;17.04;76.95;101049.22;5055021;28;20119;-75
2021/08/16 01:05:36;;;;;;;22.15;4.38;;;;;;;17.04;76.99;101047.34;5054310;28;20477;-75
2021/08/16 01:08:01;;;;;;;29.48;3.90;;;;;;;17.05;76.83;101048.22;5054914;28;20122;-75
2021/08/16 01:10:30;;;;;;;16.80;3.60;;;;;;;17.06;77.06;101057.94;5054225;28;20029;-75
2021/08/16 01:12:56;;;;;;;23.50;3.83;;;;;;;17.08;76.77;101056.75;5054915;28;20040;-75
2021/08/16 01:15:22;;;;;;;22.20;3.92;;;;;;;17.10;76.58;101060.09;5057063;28;20071;-76
2021/08/16 01:17:47;;;;;;;17.80;3.78;;;;;;;17.10;76.69;101053.88;5057923;28;20095;-75
2021/08/16 01:20:14;;;;;;;23.73;3.40;;;;;;;17.13;76.57;101045.47;5057079;28;20064;-75
2021/08/16 01:22:40;;;;;;;17.50;3.20;;;;;;;17.16;76.53;101042.41;5054096;28;20029;-75
2021/08/16 01:25:07;;;;;;;14.93;3.47;;;;;;;17.15;76.69;101046.09;5054356;28;20036;-75
2021/08/16 01:27:33;;;;;;;15.63;3.45;;;;;;;17.15;76.50;101043.41;5054415;28;20473;-75
2021/08/16 01:30:07;;;;;;;24.58;3.70;;;;;;;17.15;76.40;101046.09;5054307;28;20039;-76
2021/08/16 01:32:33;;;;;;;20.60;3.47;;;;;;;17.13;76.91;101044.63;5053980;28;20029;-75
2021/08/16 01:34:58;;;;;;;15.77;3.42;;;;;;;17.09;76.53;101046.81;5054438;28;20044;-75
2021/08/16 01:37:23;;;;;;;26.45;3.75;;;;;;;17.10;76.58;101049.34;5053383;28;20465;-76
2021/08/16 01:39:49;;;;;;;24.90;4.40;;;;;;;17.13;76.16;101042.78;5053523;28;20043;-75
2021/08/16 01:42:14;;;;;;;21.67;4.03;;;;;;;17.12;76.36;101040.25;5054321;28;20036;-75
2021/08/16 01:44:39;;;;;;;25.90;3.58;;;;;;;17.09;76.58;101053.06;5053556;28;20494;-75
2021/08/16 01:47:05;;;;;;;22.95;3.78;;;;;;;17.13;76.34;101042.78;5054537;28;20032;-74
2021/08/16 01:49:30;;;;;;;14.73;2.97;;;;;;;17.13;76.11;101036.56;5053446;28;20029;-76
2021/08/16 01:51:56;;;;;;;20.20;3.90;;;;;;;17.13;75.95;101034.72;5054343;28;20079;-75
2021/08/16 01:54:21;;;;;;;20.13;3.40;;;;;;;17.16;75.75;101037.03;5053213;28;20500;-76
2021/08/16 01:56:47;;;;;;;15.45;2.83;;;;;;;17.19;75.69;101035.84;5053899;28;20072;-75
2021/08/16 01:59:12;;;;;;;20.40;3.60;;;;;;;17.17;75.98;101036.03;5053850;28;20182;-75
2021/08/16 02:01:38;;;;;;;19.27;3.70;;;;;;;17.22;75.31;101044.38;5053221;28;20029;-74
2021/08/16 02:04:04;;;;;;;24.02;3.88;;;;;;;17.24;75.61;101036.16;5053949;28;20035;-74
2021/08/16 02:06:29;;;;;;;20.73;3.75;;;;;;;17.24;75.89;101039.69;5052748;28;20064;-74
2021/08/16 02:08:55;;;;;;;19.00;3.53;;;;;;;17.21;76.28;101040.03;5053770;28;20076;-75
2021/08/16 02:11:21;;;;;;;18.63;3.42;;;;;;;17.21;76.30;101049.94;5053354;28;20091;-74
2021/08/16 02:13:46;;;;;;;19.38;3.65;;;;;;;17.22;76.29;101044.38;5053015;28;20032;-74
2021/08/16 02:16:12;;;;;;;18.70;3.28;;;;;;;17.20;76.35;101042.91;5053498;28;20039;-75
2021/08/16 02:18:37;;;;;;;17.50;3.85;;;;;;;17.19;76.87;101044.75;5052827;28;20033;-74
2021/08/16 02:21:02;;;;;;;12.73;3.42;;;;;;;17.17;76.58;101045.97;5053406;28;20033;-74
2021/08/16 02:23:28;;;;;;;29.33;3.50;;;;;;;17.14;76.78;101044.47;5052804;28;20033;-74
2021/08/16 02:25:53;;;;;;;16.88;3.45;;;;;;;17.14;77.18;101048.97;5051850;28;20535;-74
2021/08/16 02:28:19;;;;;;;16.30;2.95;;;;;;;17.13;77.24;101040.09;5053350;28;20032;-74
2021/08/16 02:30:46;;;;;;;18.70;3.67;;;;;;;17.10;76.97;101035.06;5067813;28;20048;-75
2021/08/16 02:33:13;;;;;;;20.45;3.25;;;;;;;17.04;76.93;101044.66;5068443;28;20120;-74
2021/08/16 02:35:40;;;;;;;26.48;3.92;;;;;;;17.00;77.02;101035.28;5052281;28;20446;-74
2021/08/16 02:38:05;;;;;;;13.85;3.20;;;;;;;16.94;77.18;101041.34;5053324;28;20025;-74
2021/08/16 02:40:31;;;;;;;16.73;3.58;;;;;;;16.90;77.74;101042.75;5052772;28;20033;-74
2021/08/16 02:42:56;;;;;;;18.38;3.15;;;;;;;16.90;77.60;101040.06;5052915;28;20033;-76
2021/08/16 02:45:22;;;;;;;20.38;3.28;;;;;;;16.87;77.74;101041.25;5052643;28;20025;-74
2021/08/16 02:47:47;;;;;;;17.00;4.00;;;;;;;16.90;77.56;101037.38;5052235;28;20044;-74
2021/08/16 02:50:13;;;;;;;17.70;3.60;;;;;;;16.90;77.58;101038.19;5052484;28;20041;-74
2021/08/16 02:52:38;;;;;;;15.93;3.17;;;;;;;16.90;77.52;101034.69;5051663;28;20040;-74
2021/08/16 02:55:05;;;;;;;18.40;3.03;;;;;;;16.91;77.73;101037.19;5052446;28;20033;-74
2021/08/16 02:57:30;;;;;;;17.38;3.33;;;;;;;16.95;77.67;101034.97;5051969;28;20052;-74
2021/08/16 02:59:56;;;;;;;16.05;2.97;;;;;;;16.96;77.91;101033.13;5052387;28;20045;-74
2021/08/16 03:02:21;;;;;;;12.15;3.10;;;;;;;16.93;78.32;101031.66;5052683;28;20029;-74
2021/08/16 03:04:47;;;;;;;16.95;3.00;;;;;;;16.96;78.34;101035.81;5051021;28;20310;-74
2021/08/16 03:07:12;;;;;;;14.73;3.78;;;;;;;16.96;78.11;101042.03;5068445;28;20033;-75
2021/08/16 03:09:38;;;;;;;21.52;3.60;;;;;;;16.96;77.79;101028.59;5052117;28;20033;-75
2021/08/16 03:12:04;;;;;;;23.70;4.05;;;;;;;16.96;78.14;101023.22;5052600;28;20043;-74
2021/08/16 03:14:29;;;;;;;15.35;3.03;;;;;;;16.96;78.34;101023.22;5051981;28;20061;-75
2021/08/16 03:16:54;;;;;;;17.63;2.92;;;;;;;16.96;78.20;101015.16;5052146;28;20350;-74
2021/08/16 03:19:20;;;;;;;19.58;3.15;;;;;;;16.95;77.59;101024.22;5051957;28;20036;-74
2021/08/16 03:21:46;;;;;;;17.38;3.10;;;;;;;16.94;77.79;101014.47;5052040;28;20036;-75
2021/08/16 03:24:11;;;;;;;16.40;3.30;;;;;;;16.94;77.75;101013.66;5052240;28;20040;-73
2021/08/16 03:26:36;;;;;;;13.38;3.03;;;;;;;16.95;77.64;101013.47;5051863;28;20445;-74
2021/08/16 03:29:03;;;;;;;12.07;2.97;;;;;;;16.95;77.59;101016.16;5052094;28;20033;-74
2021/08/16 03:31:28;;;;;;;16.40;2.60;;;;;;;16.95;77.93;101020.72;5052373;28;20056;-75
2021/08/16 03:33:54;;;;;;;18.90;3.05;;;;;;;16.92;78.51;101017.34;5051464;28;20492;-74
2021/08/16 03:36:19;;;;;;;14.95;2.95;;;;;;;16.88;79.04;101018.75;5052438;28;20057;-74
2021/08/16 03:38:44;;;;;;;16.25;3.35;;;;;;;16.84;78.73;101012.00;5051609;28;20094;-73
2021/08/16 03:41:10;;;;;;;16.65;2.97;;;;;;;16.83;79.05;101010.31;5052280;28;20040;-73
2021/08/16 03:43:35;;;;;;;11.73;2.83;;;;;;;16.82;79.15;101014.00;5066880;28;20033;-74
2021/08/16 03:46:00;;;;;;;11.00;3.13;;;;;;;16.80;78.73;101016.03;5051231;28;20489;-74
2021/08/16 03:48:26;;;;;;;15.10;2.75;;;;;;;16.81;78.79;101006.97;5051849;28;20036;-74
2021/08/16 03:50:51;;;;;;;13.88;2.70;;;;;;;16.79;79.56;101000.09;5051377;28;20535;-75
2021/08/16 03:53:17;;;;;;;15.52;2.88;;;;;;;16.72;79.49;101006.19;5051793;28;20056;-73
2021/08/16 03:55:42;;;;;;;20.15;3.40;;;;;;;16.68;79.45;101002.16;5051591;28;20063;-74
2021/08/16 03:58:08;;;;;;;16.45;3.30;;;;;;;16.62;80.52;100997.50;5050570;28;20032;-74
2021/08/16 04:00:34;;;;;;;21.20;4.28;;;;;;;16.54;80.91;100997.53;5051737;28;20053;-75
2021/08/16 04:02:59;;;;;;;16.65;3.20;;;;;;;16.43;81.83;100996.06;5054058;28;20113;-73
2021/08/16 04:05:25;;;;;;;18.33;3.60;;;;;;;16.33;82.87;101009.72;5054843;28;20115;-74
2021/08/16 04:07:51;;;;;;;17.30;2.80;;;;;;;16.26;83.01;101013.22;5055293;28;20120;-74
2021/08/16 04:10:17;;;;;;;17.63;3.22;;;;;;;16.16;83.61;101008.06;5055900;28;20515;-74
2021/08/16 04:12:44;;;;;;;18.48;3.97;;;;;;;16.10;84.89;101012.28;5055208;28;20028;-75
2021/08/16 04:15:21;;;;;;;16.90;3.38;;;;;;;16.02;85.22;100997.03;5055579;28;20035;-74
2021/08/16 04:17:47;;;;;;;15.93;3.10;;;;;;;16.03;84.84;101011.28;5053776;28;20381;-74
2021/08/16 04:20:14;;;;;;;20.65;3.20;;;;;;;16.03;84.98;101003.22;5055746;28;20036;-74
2021/08/16 04:22:40;;;;;;;18.13;3.30;;;;;;;16.02;85.50;101004.25;5054827;28;20033;-74
2021/08/16 04:25:08;;;;;;;13.52;3.22;;;;;;;16.02;84.85;101012.31;5055943;28;20044;-73
2021/08/16 04:27:33;;;;;;;11.75;2.92;;;;;;;15.98;84.97;101019.00;5055304;28;20469;-73
2021/08/16 04:29:59;;;;;;;19.60;3.95;;;;;;;15.84;86.48;101021.38;5054915;28;20166;-74
2021/08/16 04:32:25;;;;;;;16.38;2.47;;;;;;;15.72;86.99;101011.97;5055496;28;20060;-73
2021/08/16 04:34:50;;;;;;;9.93;2.65;;;;;;;15.58;87.47;101009.94;5054559;28;20029;-73
2021/08/16 04:37:15;;;;;;;8.25;2.80;;;;;;;15.46;87.94;101012.97;5055334;28;20450;-75
2021/08/16 04:39:41;;;;;;;18.30;2.63;;;;;;;15.37;88.32;101015.81;5055048;28;20092;-75
2021/08/16 04:42:06;;;;;;;13.38;2.90;;;;;;;15.28;88.46;101006.91;5070746;28;20036;-75
2021/08/16 04:44:32;;;;;;;9.93;2.38;;;;;;;15.21;87.78;101003.22;5055350;28;20029;-75
2021/08/16 04:46:57;;;;;;;9.35;2.50;;;;;;;15.16;88.31;101017.94;5054526;28;20033;-75
2021/08/16 04:49:22;;;;;;;14.63;3.10;;;;;;;15.13;87.70;101015.59;5055178;28;20112;-75
2021/08/16 04:51:48;;;;;;;6.22;2.10;;;;;;;15.11;86.93;101017.63;5069921;28;20029;-75
2021/08/16 04:54:13;;;;;;;9.65;2.15;;;;;;;15.09;87.34;101010.75;5055278;28;20037;-75
2021/08/16 04:56:38;;;;;;;6.93;2.10;;;;;;;15.09;87.63;101019.63;5055163;28;20036;-75
2021/08/16 04:59:04;;;;;;;5.03;2.17;;;;;;;15.10;87.53;101026.66;5054167;28;20136;-75
2021/08/16 05:01:30;;;;;;;8.45;2.45;;;;;;;15.17;86.76;101026.84;5053722;28;20028;-74
2021/08/16 05:03:56;;;;;;;12.25;2.60;;;;;;;15.22;87.13;101021.00;5054363;28;20064;-75
2021/08/16 05:06:28;;;;;;;7.88;2.30;;;;;;;15.24;86.82;101017.16;5054947;28;20465;-75
2021/08/16 05:08:58;;;;;;;7.35;2.58;;;;;;;15.22;87.69;101027.19;5054350;28;20033;-74
2021/08/16 05:11:24;;;;;;;6.60;2.60;;;;;;;15.19;87.97;101038.22;5054778;28;20048;-72
2021/08/16 05:13:50;;;;;;;13.95;2.70;;;;;;;15.17;87.69;101045.59;5052860;28;20029;-73
2021/08/16 05:16:17;;;;;;;7.18;2.63;;;;;;;15.11;88.56;101031.00;5054948;28;20350;-73
2021/08/16 05:18:43;;;;;;;9.85;3.00;;;;;;;15.03;88.96;101036.34;5053879;28;20036;-75
2021/08/16 05:21:08;;;;;;;16.55;4.00;;;;;;;14.93;89.00;101031.13;5054673;28;20110;-73
2021/08/16 05:23:34;;;;;;;10.98;4.25;;;;;;;14.90;90.50;101036.81;5054430;28;20029;-75
2021/08/16 05:25:59;;;;;;;12.52;4.18;;;;;;;14.82;90.37;101039.47;5052703;28;20036;-74
2021/08/16 05:28:25;;;;;;;18.85;4.95;;;;;;;14.82;91.42;101047.50;5053278;28;20127;-75
2021/08/16 05:30:50;;;;;;;20.40;5.35;;;;;;;14.82;91.71;101052.84;5053921;28;20132;-75
2021/08/16 05:33:15;;;;;;;16.50;4.90;;;;;;;14.77;91.95;101053.34;5054549;28;20412;-74
2021/08/16 05:35:41;;;;;;;17.80;4.20;;;;;;;14.73;91.67;101051.16;5054451;28;20060;-73
2021/08/16 05:38:06;;;;;;;18.40;4.43;;;;;;;14.68;91.12;101061.53;5053638;28;20389;-73
2021/08/16 05:40:32;;;;;;;17.60;4.05;;;;;;;14.63;90.60;101067.34;5052838;28;20493;-73
2021/08/16 05:42:57;;;;;;;13.00;3.72;;;;;;;14.60;90.29;101063.13;5053630;28;20044;-73
2021/08/16 05:45:23;;;;;;;9.48;3.75;;;;;;;14.58;90.04;101050.88;5054253;28;20453;-73
2021/08/16 05:47:48;;;;;;;17.63;4.20;;;;;;;14.52;89.67;101060.38;5054123;28;20028;-73
2021/08/16 05:50:14;;;;;;;17.13;3.85;;;;;;;14.50;89.92;101062.41;5054220;28;20029;-73
2021/08/16 05:52:39;;;;;;;20.08;3.80;;;;;;;14.50;89.68;101061.56;5052709;28;20044;-73
2021/08/16 05:55:05;;;;;;;14.52;3.67;;;;;;;14.49;88.52;101057.22;5053248;28;20090;-73
2021/08/16 05:57:31;;;;;;;11.48;3.70;;;;;;;14.54;89.22;101058.41;5069137;28;20481;-73
2021/08/16 05:59:57;;;;;;;16.05;3.88;;;;;;;14.58;88.84;101070.47;5053414;28;20056;-73
2021/08/16 06:02:22;;;;;;;16.92;3.75;;;;;;;14.61;88.81;101072.00;5053824;28;20104;-73
2021/08/16 06:04:48;;;;;;;17.98;3.55;;;;;;;14.60;88.74;101072.97;5053202;28;20032;-73
2021/08/16 06:07:13;;;;;;;16.17;3.72;;;;;;;14.56;88.81;101075.16;5053659;28;20106;-73
2021/08/16 06:09:38;;;;;;;13.80;4.03;;;;;;;14.52;89.24;101079.13;5053733;28;20033;-73
2021/08/16 06:12:04;;;;;;;26.75;4.90;;;;;;;14.54;89.20;101085.19;5051833;28;20080;-73
2021/08/16 06:14:30;;;;;;;15.50;3.95;;;;;;;14.53;88.57;101083.50;5053630;28;20049;-73
2021/08/16 06:16:55;;;;;;;15.35;3.83;;;;;;;14.51;87.49;101090.00;5052902;28;20044;-73
2021/08/16 06:19:20;;;;;;;13.70;4.03;;;;;;;14.45;88.25;101092.31;5053611;28;20055;-72
2021/08/16 06:21:46;;;;;;;16.70;4.70;;;;;;;14.38;89.16;101101.97;5053758;28;20055;-73
2021/08/16 06:24:12;;;;;;;15.93;4.13;;;;;;;14.30;89.77;101099.25;5052581;28;20087;-72
2021/08/16 06:26:38;;;;;;;13.55;4.18;;;;;;;14.18;89.86;101108.53;5053216;28;20033;-73
2021/08/16 06:29:04;;;;;;;14.38;4.22;;;;;;;14.11;90.39;101109.16;5052680;28;20044;-73
2021/08/16 06:31:30;;;;;;;18.70;5.53;;;;;;;14.07;90.69;101105.09;5053000;28;20052;-73
2021/08/16 06:33:56;;;;;;;15.48;4.85;;;;;;;14.06;90.16;101099.91;5052709;28;20086;-73
2021/08/16 06:36:21;;;;;;;15.27;4.10;;;;;;;14.04;90.14;101112.63;5053472;28;20036;-74
2021/08/16 06:38:48;;;;;;;10.57;4.55;;;;;;;14.00;90.19;101111.22;5052980;28;20032;-74
2021/08/16 06:41:15;;;;;;;18.35;5.20;;;;;;;13.93;89.49;101121.72;5051382;28;20057;-75
2021/08/16 06:43:42;;;;;;;15.60;3.80;;;;;;;13.88;88.99;101124.88;5053270;28;20445;-75
2021/08/16 06:46:07;;;;;;;15.88;3.83;;;;;;;13.85;89.42;101133.19;5052444;28;20032;-74
2021/08/16 06:48:33;;;;;;;11.95;3.50;;;;;;;13.81;88.78;101131.81;5052764;28;20036;-73
2021/08/16 06:50:58;;;;;;;6.85;3.25;;;;;;;13.75;89.19;101137.78;5051235;28;20044;-72
2021/08/16 06:53:24;;;;;;;8.38;4.00;;;;;;;13.73;89.35;101140.59;5053000;28;20025;-75
2021/08/16 06:55:50;;;;;;;19.17;4.13;;;;;;;13.72;88.56;101136.25;5052894;28;20029;-76
2021/08/16 06:58:16;;;;;;;12.20;3.40;;;;;;;13.77;87.93;101148.31;5052067;28;20033;-75
2021/08/16 07:00:43;;;;;;;9.90;3.20;;;;;;;13.79;88.99;101146.31;5052374;28;20056;-75
2021/08/16 07:03:09;;;;;;;12.80;3.00;;;;;;;13.74;86.66;101144.94;5052174;28;20033;-74
2021/08/16 07:05:35;;;;;;;15.95;3.85;;;;;;;13.79;88.11;101152.50;5052699;28;20039;-75
2021/08/16 07:08:01;;;;;;;14.02;3.60;;;;;;;13.80;87.47;101156.88;5052139;28;20041;-75
2021/08/16 07:10:26;;;;;;;12.02;3.70;;;;;;;13.85;87.26;101149.25;5052643;28;20029;-75
2021/08/16 07:12:51;;;;;;;15.95;4.25;;;;;;;13.97;87.56;101151.66;5052352;28;20029;-75
2021/08/16 07:15:17;;;;;;;19.52;4.40;;;;;;;14.08;86.78;101154.13;5051771;28;20025;-77
2021/08/16 07:17:42;;;;;;;10.88;3.58;;;;;;;14.15;87.33;101152.47;5048168;28;20091;-76
2021/08/16 07:20:11;;;;;;;19.52;4.00;;;;;;;14.26;85.40;101160.28;5049474;28;20376;-76
2021/08/16 07:22:37;;;;;;;16.33;3.55;;;;;;;14.41;83.62;101162.41;5049794;28;20064;-75
2021/08/16 07:25:04;;;;;;;7.88;3.42;;;;;;;14.47;81.71;101167.13;5047780;28;20065;-75
2021/08/16 07:27:29;;;;;;;10.70;4.22;;;;;;;14.48;83.34;101165.28;5049695;28;20037;-75
2021/08/16 07:29:55;;;;;;;15.18;4.10;;;;;;;14.49;83.06;101172.31;5049190;28;20451;-74
2021/08/16 07:32:20;;;;;;;18.40;4.72;;;;;;;14.49;83.55;101169.66;5048827;28;20420;-75
2021/08/16 07:34:46;;;;;;;11.38;4.28;;;;;;;14.41;81.15;101173.13;5046924;28;20068;-75
2021/08/16 07:37:12;;;;;;;14.60;4.53;;;;;;;14.33;78.70;101176.56;5051460;28;20434;-73
2021/08/16 07:39:37;;;;;;;11.77;3.85;;;;;;;14.32;80.39;101180.22;5071162;28;20032;-74
2021/08/16 07:42:03;;;;;;;12.52;4.30;;;;;;;14.31;80.55;101186.56;5055622;28;20487;-74
2021/08/16 07:44:29;;;;;;;19.70;4.80;;;;;;;14.28;78.83;101185.03;5056162;28;20039;-74
2021/08/16 07:46:56;;;;;;;17.25;5.03;;;;;;;14.26;80.52;101192.41;5056366;28;20067;-74
2021/08/16 07:49:22;;;;;;;15.02;4.72;;;;;;;14.24;79.58;101193.53;5055632;28;20069;-75
2021/08/16 07:51:48;;;;;;;18.27;4.90;;;;;;;14.26;80.04;101197.75;5056322;28;20421;-75
2021/08/16 07:54:13;;;;;;;14.35;4.80;;;;;;;14.32;81.64;101195.47;5070817;28;20382;-74
2021/08/16 07:56:41;;;;;;;13.07;5.07;;;;;;;14.40;80.51;101196.34;5056238;28;20029;-75
2021/08/16 07:59:06;;;;;;;13.23;4.97;;;;;;;14.58;78.45;101198.16;5053828;28;20462;-74
2021/08/16 08:01:32;;;;;;;19.20;5.95;;;;;;;14.70;78.95;101196.09;5055850;28;20029;-74
2021/08/16 08:03:57;;;;;;;12.13;5.05;;;;;;;14.77;78.69;101205.19;5054783;28;20072;-74
2021/08/16 08:06:23;;;;;;;12.38;5.13;;;;;;;14.88;77.75;101204.06;5055410;28;20025;-74
2021/08/16 08:08:48;;;;;;;17.75;7.07;;;;;;;14.95;78.10;101210.47;5055908;28;20065;-75
2021/08/16 08:11:13;;;;;;;17.00;6.40;;;;;;;14.96;77.06;101215.69;5055331;28;20039;-74
2021/08/16 08:13:39;;;;;;;16.33;6.15;;;;;;;15.13;73.63;101213.91;5055589;28;20072;-74
2021/08/16 08:16:04;;;;;;;22.90;7.25;;;;;;;15.29;73.76;101215.84;5055221;28;20037;-75
2021/08/16 08:18:30;;;;;;;17.25;6.40;;;;;;;15.40;71.52;101225.44;5071109;28;20072;-73
2021/08/16 08:20:55;;;;;;;17.75;6.25;;;;;;;15.39;70.63;101223.78;5055407;28;20033;-73
2021/08/16 08:23:21;;;;;;;17.08;6.68;;;;;;;15.36;72.84;101224.09;5055449;28;20090;-74
2021/08/16 08:25:46;;;;;;;15.13;6.22;;;;;;;15.55;74.48;101231.00;5055311;28;20086;-73
2021/08/16 08:28:11;;;;;;;17.00;6.65;;;;;;;16.01;72.19;101228.81;5054750;28;20037;-74
2021/08/16 08:30:44;;;;;;;19.17;6.47;;;;;;;16.21;72.59;101228.50;5055680;28;20040;-73
2021/08/16 08:33:15;;;;;;;17.10;6.35;;;;;;;16.06;71.57;101230.16;5054584;28;20489;-74
2021/08/16 08:35:40;;;;;;;19.90;6.50;;;;;;;15.77;72.11;101239.47;5055481;28;20036;-73
2021/08/16 08:38:05;;;;;;;13.57;6.30;;;;;;;15.46;71.54;101246.22;5054356;28;20295;-74
2021/08/16 08:40:31;;;;;;;17.42;6.80;;;;;;;15.15;75.04;101246.78;5055427;28;20040;-73
2021/08/16 08:42:56;;;;;;;15.82;6.95;;;;;;;14.87;74.85;101251.47;5055322;28;20040;-74
2021/08/16 08:45:27;;;;;;;18.90;7.88;;;;;;;14.69;77.07;101264.91;5053405;28;20032;-73
2021/08/16 08:47:53;;;;;;;20.92;7.63;;;;;;;14.50;79.04;101262.38;5055303;28;20041;-73
2021/08/16 08:50:19;;;;;;;19.33;7.72;;;;;;;14.24;81.85;101263.13;5053118;28;20385;-73
2021/08/16 08:52:45;;;;;;;20.48;8.10;;;;;;;14.05;82.51;101267.63;5053963;28;20039;-73
2021/08/16 08:55:12;;;;;;;24.48;8.80;;;;;;;13.90;83.92;101269.97;5054340;28;20060;-74
2021/08/16 08:57:38;;;;;;;28.02;9.40;;;;;;;13.74;83.00;101275.16;5055005;28;20029;-73
2021/08/16 09:00:06;;;;;;;22.58;8.90;;;;;;;13.60;83.81;101275.63;5070361;28;20052;-71
2021/08/16 09:02:31;;;;;;;29.05;10.07;;;;;;;13.51;85.25;101272.88;5054388;28;20037;-73
2021/08/16 09:04:59;;;;;;;24.80;9.45;;;;;;;13.54;86.25;101272.56;5055288;28;20040;-73
2021/08/16 09:07:37;;;;;;;22.60;9.70;;;;;;;13.78;85.60;101286.38;5054388;28;20028;-73
2021/08/16 09:10:05;;;;;;;28.20;9.77;;;;;;;14.04;85.88;101279.31;5054919;28;20029;-74
2021/08/16 09:12:32;;;;;;;23.65;9.20;;;;;;;14.29;82.79;101290.28;5054170;28;20052;-74
2021/08/16 09:14:59;;;;;;;24.48;7.93;;;;;;;14.51;82.31;101293.47;5054513;28;20496;-74
2021/08/16 09:17:32;;;;;;;25.17;8.43;;;;;;;14.70;81.96;101296.00;5052541;28;20033;-74
2021/08/16 09:19:59;;;;;;;23.05;8.60;;;;;;;15.02;78.86;101291.91;5054946;28;20029;-74
2021/08/16 09:22:34;;;;;;;15.07;7.03;;;;;;;15.68;76.96;101297.63;5054039;28;20171;-74
2021/08/16 09:25:10;;;;;;;21.33;7.65;;;;;;;17.19;71.49;101302.84;5054483;28;20175;-74
2021/08/16 09:27:46;;;;;;;18.02;7.00;;;;;;;18.73;65.24;101307.81;5053823;28;20481;-75
2021/08/16 09:30:13;;;;;;;17.33;7.05;;;;;;;20.29;61.34;101302.50;5054201;28;20036;-75
2021/08/16 09:32:40;;;;;;;12.10;5.60;;;;;;;21.19;55.11;101306.41;5054561;28;20120;-71
2021/08/16 09:35:12;;;;;;;13.02;4.60;;;;;;;21.17;54.97;101300.38;5054246;28;20120;-71
2021/08/16 09:37:39;;;;;;;15.63;4.97;;;;;;;21.00;55.05;101305.22;5054000;28;20071;-72
2021/08/16 09:40:17;;;;;;;12.27;3.80;;;;;;;19.91;56.87;101295.44;5054371;28;20041;-73
2021/08/16 09:42:57;;;;;;;8.68;3.72;;;;;;;19.06;60.93;101302.16;5054292;28;20147;-75
2021/08/16 09:45:32;;;;;;;8.73;4.07;;;;;;;18.83;61.14;101311.09;5053586;28;20037;-73
2021/08/16 09:48:00;;;;;;;12.10;3.78;;;;;;;18.45;61.47;101311.91;5054139;28;20029;-75
2021/08/16 09:50:40;;;;;;;9.25;3.63;;;;;;;17.93;64.40;101318.78;5053434;28;20040;-76
2021/08/16 09:53:12;;;;;;;7.87;4.03;;;;;;;17.66;63.94;101319.19;5054138;28;20033;-76
2021/08/16 09:55:40;;;;;;;10.43;4.28;;;;;;;17.55;63.89;101318.56;5052217;28;20039;-75
2021/08/16 09:58:07;;;;;;;12.55;4.53;;;;;;;17.43;64.98;101331.53;5054149;28;20041;-76
2021/08/16 10:00:33;;;;;;;8.18;4.25;;;;;;;17.42;62.96;101329.03;5053118;28;20045;-76
2021/08/16 10:03:00;;;;;;;16.58;4.90;;;;;;;18.15;64.52;101325.22;5054195;28;20025;-76
2021/08/16 10:05:27;;;;;;;9.73;4.93;;;;;;;19.32;60.05;101347.56;5053389;28;20064;-76
2021/08/16 10:07:53;;;;;;;13.75;4.35;;;;;;;19.51;59.70;101338.94;5052951;28;20468;-76
2021/08/16 10:10:19;;;;;;;14.63;4.38;;;;;;;18.68;59.87;101351.47;5052989;28;20051;-76
2021/08/16 10:12:46;;;;;;;13.38;4.32;;;;;;;17.97;63.61;101363.19;5053838;28;20037;-75
2021/08/16 10:15:12;;;;;;;19.63;5.55;;;;;;;17.23;67.87;101365.22;5053330;28;20044;-75
2021/08/16 10:17:41;;;;;;;16.35;4.95;;;;;;;16.51;71.74;101374.75;5052854;28;20068;-77
2021/08/16 10:20:08;;;;;;;11.68;4.50;;;;;;;15.73;73.80;101367.72;5053626;28;20037;-75
2021/08/16 10:22:40;;;;;;;19.83;5.20;;;;;;;15.48;76.10;101364.91;5068296;28;20124;-75
2021/08/16 10:25:13;;;;;;;18.60;4.78;;;;;;;15.27;75.20;101386.75;5053812;28;20033;-75
2021/08/16 10:27:38;;;;;;;11.27;3.97;;;;;;;15.02;73.80;101387.53;5053012;28;20272;-74
2021/08/16 10:30:07;;;;;;;10.05;3.75;;;;;;;14.67;73.70;101403.44;5053465;28;20055;-74
2021/08/16 10:32:32;;;;;;;18.00;4.28;;;;;;;14.51;75.51;101406.78;5052710;28;20025;-76
2021/08/16 10:35:05;;;;;;;12.77;4.18;;;;;;;14.49;76.35;101405.25;5053179;28;20040;-76
2021/08/16 10:37:40;;;;;;;10.00;3.75;;;;;;;14.60;76.62;101408.56;5052529;28;20025;-74
2021/08/16 10:40:22;;;;;;;14.38;3.13;;;;;;;14.72;73.91;101419.06;5053231;28;20029;-74
2021/08/16 10:42:48;;;;;;;10.05;3.70;;;;;;;14.77;75.06;101411.44;5053172;28;20029;-75
2021/08/16 10:45:24;;;;;;;9.25;3.50;;;;;;;14.71;75.15;101399.47;5053224;28;20041;-75
2021/08/16 10:47:59;;;;;;;9.90;3.78;;;;;;;14.81;76.14;101392.22;5053151;28;20044;-75
2021/08/16 10:50:24;;;;;;;12.07;3.17;;;;;;;14.96;74.66;101399.72;5052506;28;20103;-76
2021/08/16 10:53:03;;;;;;;12.35;3.58;;;;;;;15.04;74.50;101397.09;5052573;28;20118;-75
2021/08/16 10:55:32;;;;;;;8.23;3.28;;;;;;;15.13;73.43;101393.47;5052608;28;20133;-76
2021/08/16 10:57:57;;;;;;;10.30;3.72;;;;;;;15.23;72.88;101398.75;5052824;28;20025;-75
2021/08/16 11:00:23;;;;;;;13.90;4.18;;;;;;;15.36;74.39;101401.03;5051921;28;20049;-76
2021/08/16 11:02:58;;;;;;;16.17;3.60;;;;;;;15.40;72.61;101401.56;5052716;28;20112;-76
2021/08/16 11:05:33;;;;;;;13.85;4.00;;;;;;;15.35;73.02;101402.03;5052129;28;20035;-75
2021/08/16 11:08:03;;;;;;;13.38;4.60;;;;;;;15.38;73.75;101408.94;5051340;28;20384;-74
2021/08/16 11:10:38;;;;;;;14.07;3.88;;;;;;;15.42;72.51;101405.78;5051973;28;20037;-75
2021/08/16 11:13:11;;;;;;;13.52;4.20;;;;;;;15.45;72.33;101404.59;5051708;28;20028;-75